• Join FlightAware (Why Join?)
  • Login
  • US Flag 
08:24PM EST


 

Airport Tracker/Info


-or-


 

Live Flight TrackerFlight Track Log ✈ EJA951 ✈ 08-Nov-2013 ✈ KSNA - KVNY

Flight Track Log - Related Links

Times and Time Zones

All times are in EST time to prevent confusion due to time zone crossing. See the EJA951 flight status page for this flight to view local times or setup timezone preferences in your user account.

Time Position Orientation Groundspeed Altitude Reporting Facility
EST Latitude Longitude Course Direction KTS MPH feet Rate Location/Type
09:04PM 33.6667 -117.8833 North 170 196 1,100  Level Southern California TRACON
09:05PM 33.6000 -117.9000 192° South 222 255 4,800 2,400 Climbing Southern California TRACON
09:06PM 33.5500 -117.9333 209° Southwest 273 314 6,000 540 Climbing Southern California TRACON
09:07PM 33.5333 -118.0333 259° West 272 313 6,000  Level Southern California TRACON
09:08PM 33.5500 -118.1167 284° West 273 314 6,000  Level Southern California TRACON
09:09PM 33.5644 -118.1378 309° West 271 312 6,000  Level Los Angeles Center
09:10PM 33.8941 -118.1211 North  Level Estimated
09:10PM 33.6411 -118.1975 327° Northwest 274 315 6,000  Level Los Angeles Center
09:11PM 33.7044 -118.2475 327° Northwest 275 316 6,000  Level Los Angeles Center
09:12PM 33.7669 -118.2967 327° Northwest 277 319 6,000  Level Los Angeles Center
09:13PM 33.8419 -118.3583 326° Northwest 280 322 6,000  Level Los Angeles Center
09:14PM 33.9050 -118.4094 326° Northwest 276 318 6,000 -120 Level Los Angeles Center
09:15PM 33.9731 -118.4592 329° Northwest 276 318 5,800 -540 Descending Los Angeles Center
09:16PM 34.0372 -118.5050 329° Northwest 268 308 5,000 -420 Descending Los Angeles Center
09:17PM 34.0989 -118.5497 329° Northwest 270 311 5,000  Level Los Angeles Center
09:18PM 34.1642 -118.5869 335° Northwest 264 304 5,000  Level Los Angeles Center
09:19PM 34.2517 -118.5961 355° North 263 303 5,000  Level Los Angeles Center
09:20PM 34.3256 -118.6044 355° North 265 305 5,000  Level Los Angeles Center
09:21PM 34.4022 -118.6122 355° North 274 315 5,000  Level Los Angeles Center
09:22PM 34.4317 -118.5606 55° Northeast 212 244 5,000  Level Los Angeles Center
09:23PM 34.3972 -118.5189 135° Southeast 178 205 5,000 -360 Level Los Angeles Center
09:24PM 34.3561 -118.5017 161° South 162 186 4,300 -840 Descending Los Angeles Center
09:25PM 34.3164 -118.5003 178° South 149 171 3,300 -1,020 Descending Los Angeles Center
09:26PM 34.2708 -118.4981 178° South 141 162 2,200 -1,020 Descending Los Angeles Center
09:27PM 34.2336 -118.4942 175° South 137 158 1,300 -900 Descending Los Angeles Center